x

Shumagin Islands - 85nm South Of Sand Point, Ak (46075) Wave Buoy

6:50 - Fri 29th Aug 2014 All times are UTC.

  • Sig Wave height 3.9ft
  • Peak Period 7s
  • Average Period 6s
  • Wind
    4mph, 7mph gusts
  • Sea Temp 56°f
  • Aire Temp 56°f
  • Sea Pressure 1010.5mb

More Historic Weather Station data

Upgrade to MSW Pro to gain access to the past 30 days of data for over 8000 Wavebouys and Weather Stations around the globe.

Join Pro

Comparision Forecast

View Surf forecast
   
vie 08/29 6:50 4ft 7s 6s 4 7 mph 1010.5mb 56f 56f
5:50 4ft 8s 6s 7
mph
1010.7mb 56f 56f
4:50 3.5ft 8s 6s 7 9 mph 1011mb 56f 56f
3:50 4ft 8s 6s 7
mph
1011.3mb 56f 56f
2:50 4ft 8s 6s 2 4 mph 1011.1mb 56f 56f
1:50 3.5ft 8s 6s 7 9 mph 1011.9mb 56f 56f
12:50 4ft 8s 6s 7 9 mph 1011.9mb 56f 55f
11:50 4ft 8s 6s 9 11 mph 1012.8mb 57f 56f
10:50 4.5ft 8s 6s 9
mph
1012.9mb 57f 56f
9:50 4.5ft 8s 6s 9 11 mph 1012.7mb 57f 56f
8:50 5ft 8s 6s 11 13 mph 1013mb 57f 56f
7:50 5ft 8s 6s 11 13 mph 1013.3mb 57f 56f
6:50 5ft 8s 6s 11 13 mph 1012.6mb 57f 56f
5:50 5ft 8s 6s 11 13 mph 1012.8mb 57f 56f
4:50 5ft 8s 6s 13 16 mph 1012.6mb 57f 56f
3:50 5ft 8s 6s 13 16 mph 1013mb 57f 56f
2:50 5ft 8s 6s 9 11 mph 1013mb 57f 56f
1:50 4.5ft 8s 6s 11 13 mph 1013.2mb 57f 56f
12:50 5ft 9s 6s 7 11 mph 1013.2mb 57f 56f
jue 08/28 11:50 6ft 9s 6s 7 9 mph 1012.7mb 57f 56f
10:50 6ft 8s 6s 9 11 mph 1012.8mb 56f 56f
9:50 7ft 8s 6s 9 13 mph 1013mb 56f 56f
8:50 7ft 9s 6s 11 16 mph 1013.3mb 56f 56f
7:50 8ft 8s 6s 11 13 mph 1013.1mb 56f 56f
6:50 8ft 9s 6s 11 13 mph 1012.9mb 56f 56f
5:50 9ft 9s 7s 11 13 mph 1012.1mb 56f 55f
4:50 9ft 8s 7s 13 16 mph 1012mb 56f 56f
3:50 8.5ft 9s 7s 9 11 mph 1011.5mb 56f 56f
2:50 8ft 9s 7s 13 16 mph 1010.9mb 56f 56f
1:50 8ft 10s 7s 16 18 mph 1010.6mb 56f 56f
12:50 8ft 9s 6s 18 20 mph 1009.9mb 56f 56f
11:50 9ft 9s 7s 20 22 mph 1009.7mb 56f 55f
10:50 9ft 9s 7s 18 22 mph 1009.3mb 55f 56f
9:50 9.5ft 10s 7s 18 22 mph 1009.2mb 55f 55f
8:50 10ft 8s 7s 18 22 mph 1008.7mb 55f 55f
7:50 10ft 10s 7s 16 18 mph 1008.4mb 55f 55f
6:50 11ft 10s 7s 22 27 mph 1007.7mb 55f 55f
5:50 11.5ft 8s 7s 27 31 mph 1006.3mb 56f 55f
4:50 11ft 10s 7s 25 31 mph 1005.8mb 56f 55f
3:50  -   -   -  27 31 mph 1005.6mb 56f 55f
2:50 12ft 9s 7s 27 34 mph 1005.6mb 56f 55f
1:50 11ft 10s 7s 29 36 mph 1005.6mb 56f 55f
12:50 10ft 9s 7s 25 31 mph 1005.4mb 56f 56f
mié 08/27 11:50 9.5ft 9s 6s 25 29 mph 1005.7mb 57f 55f
10:50 10ft 9s 6s 22 29 mph 1005.6mb 57f 56f
9:50 9.5ft 8s 6s 22 27 mph 1005.8mb 57f 56f
8:50 10.5ft 8s 6s 20 25 mph 1006.3mb 56f 56f
7:50 11ft 9s 6s 22 29 mph 1006.6mb 56f 56f
6:50 10ft 8s 6s 22 29 mph 1007.2mb 56f 56f
5:50 9ft 9s 6s 18 22 mph 1007.9mb 56f 56f
4:50 9.5ft 8s 6s 20 25 mph 1008.3mb 56f 56f
3:50 8ft 9s 6s 18 20 mph 1008.8mb 56f 55f
2:50 8ft 8s 6s 18 20 mph 1009.3mb 57f 56f
1:50 8ft 8s 6s 18 22 mph 1010.1mb 57f 55f
12:50 7.5ft 8s 6s 18 22 mph 1010.6mb 56f 56f
11:50 7ft 7s 6s 18 20 mph 1011.2mb 56f 56f
10:50 6.5ft 7s 5s 20 25 mph 1011.7mb 57f 56f
9:50 6ft 7s 5s 20 25 mph 1012.1mb 57f 56f
8:50 6ft 7s 5s 18 22 mph 1012.5mb 57f 56f
7:50  -   -   -  22 27 mph 1013.2mb 57f 56f
6:50 6ft 6s 5s 22 27 mph 1013.5mb 57f 56f
5:50 5.5ft 6s 5s 20 22 mph 1014.2mb 57f 56f
4:50 5ft 6s 5s 20 25 mph 1014.8mb 57f 56f
3:50 5ft 6s 4s 20 22 mph 1015.6mb 57f 56f
2:50 4.5ft 5s 5s 18 22 mph 1016.4mb 57f 56f
1:50 4.5ft 8s 5s 18 20 mph 1017.3mb 57f 56f
12:50 4ft 7s 5s 16 18 mph 1018.1mb 57f 56f
mar 08/26 11:50 4ft 8s 5s 13 18 mph 1018.8mb 57f 56f
10:50 3.5ft 7s 5s 13 18 mph 1019.3mb 57f 56f
9:50 3.5ft 7s 5s 9 11 mph 1019.6mb 57f 56f
8:50 4.5ft 8s 6s 11 13 mph 1020.1mb 57f 55f
7:50 4.5ft 8s 6s 7 9 mph 1020.1mb 57f 55f
6:50 5ft 8s 5s 9 11 mph 1019.8mb 57f 55f
5:50 5ft 8s 5s 13 16 mph 1019.9mb 57f 55f
4:50 6ft 8s 6s 13 18 mph 1019.6mb 57f 55f
3:50 6ft 8s 6s 13 18 mph 1019.6mb 57f 55f
2:50 6ft 8s 6s 13 16 mph 1019.5mb 57f 54f
1:50 6.5ft 8s 6s 16 18 mph 1019.6mb 57f 54f
12:50 7ft 8s 6s 18 20 mph 1019.4mb 56f 54f
11:50 7ft 8s 6s 18 20 mph 1019.2mb 56f 55f
10:50 7.5ft 9s 6s 18 20 mph 1019.1mb 56f 55f
9:50 7ft 8s 6s 18 22 mph 1019.1mb 56f 55f
8:50 7.5ft 8s 6s 20 25 mph 1018.7mb 56f 55f
7:50 8ft 9s 6s 20 25 mph 1018.3mb 56f 55f
6:50 8.5ft 9s 6s 20 25 mph 1018mb 56f 55f
5:50 9.5ft 9s 6s 22 25 mph 1017.6mb 56f 55f
4:50 10ft 9s 6s 22 27 mph 1017.2mb 56f 55f
3:50 11ft 8s 7s 22 29 mph 1016.7mb 56f 55f
2:50 11ft 9s 6s 22 27 mph 1016.3mb 56f 55f
1:50 11ft 10s 7s 25 29 mph 1015.9mb 56f 55f
12:50 11ft 9s 7s 22 25 mph 1015.5mb 56f 55f
lun 08/25 11:50 11ft 9s 7s 25 29 mph 1015mb 56f 56f
10:50 10.5ft 10s 7s 22 27 mph 1014.6mb 56f 55f
9:50 11.5ft 11s 7s 22 29 mph 1014.3mb 56f 56f
8:50 11ft 10s 7s 25 31 mph 1013.2mb 56f 56f
7:50 10.5ft 10s 7s 22 27 mph 1013mb 57f 56f